地図

経路データ

SID SEASON NUMBER BASIN SUBBASIN NAME ISO_TIME NATURE LAT LON WMO_WIND WMO_PRES WMO_AGENCY TRACK_TYPE DIST2LAND LANDFALL IFLAG USA_AGENCY USA_ATCF_ID USA_LAT USA_LON USA_RECORD USA_STATUS USA_WIND USA_PRES USA_SSHS USA_R34_NE USA_R34_SE USA_R34_SW USA_R34_NW USA_R50_NE USA_R50_SE USA_R50_SW USA_R50_NW USA_R64_NE USA_R64_SE USA_R64_SW USA_R64_NW USA_POCI USA_ROCI USA_RMW USA_EYE TOKYO_LAT TOKYO_LON TOKYO_GRADE TOKYO_WIND TOKYO_PRES TOKYO_R50_DIR TOKYO_R50_LONG TOKYO_R50_SHORT TOKYO_R30_DIR TOKYO_R30_LONG TOKYO_R30_SHORT TOKYO_LAND CMA_LAT CMA_LON CMA_CAT CMA_WIND CMA_PRES HKO_LAT HKO_LON HKO_CAT HKO_WIND HKO_PRES NEWDELHI_LAT NEWDELHI_LON NEWDELHI_GRADE NEWDELHI_WIND NEWDELHI_PRES NEWDELHI_CI NEWDELHI_DP NEWDELHI_POCI REUNION_LAT REUNION_LON REUNION_TYPE REUNION_WIND REUNION_PRES REUNION_TNUM REUNION_CI REUNION_RMW REUNION_R34_NE REUNION_R34_SE REUNION_R34_SW REUNION_R34_NW REUNION_R50_NE REUNION_R50_SE REUNION_R50_SW REUNION_R50_NW REUNION_R64_NE REUNION_R64_SE REUNION_R64_SW REUNION_R64_NW BOM_LAT BOM_LON BOM_TYPE BOM_WIND BOM_PRES BOM_TNUM BOM_CI BOM_RMW BOM_R34_NE BOM_R34_SE BOM_R34_SW BOM_R34_NW BOM_R50_NE BOM_R50_SE BOM_R50_SW BOM_R50_NW BOM_R64_NE BOM_R64_SE BOM_R64_SW BOM_R64_NW BOM_ROCI BOM_POCI BOM_EYE BOM_POS_METHOD BOM_PRES_METHOD NADI_LAT NADI_LON NADI_CAT NADI_WIND NADI_PRES WELLINGTON_LAT WELLINGTON_LON WELLINGTON_WIND WELLINGTON_PRES DS824_LAT DS824_LON DS824_STAGE DS824_WIND DS824_PRES TD9636_LAT TD9636_LON TD9636_STAGE TD9636_WIND TD9636_PRES TD9635_LAT TD9635_LON TD9635_WIND TD9635_PRES TD9635_ROCI NEUMANN_LAT NEUMANN_LON NEUMANN_CLASS NEUMANN_WIND NEUMANN_PRES MLC_LAT MLC_LON MLC_CLASS MLC_WIND MLC_PRES USA_GUST BOM_GUST BOM_GUST_PER REUNION_GUST REUNION_GUST_PER USA_SEAHGT USA_SEARAD_NE USA_SEARAD_SE USA_SEARAD_SW USA_SEARAD_NW STORM_SPEED STORM_DIR
2023089S14102 2023 13 SI WA HERMAN 2023-03-29 12:00:00 NR -14.3000 102.100 PROVISIONAL 904 897 O_____________ tcvitals SI172023 -14.3000 102.100 45 995 0 30 20 50 35 1008 250 20 7 108
2023089S14102 2023 13 SI WA HERMAN 2023-03-29 15:00:00 NR -14.4124 102.462 PROVISIONAL 892 882 P_____________ SI172023 -14.4124 102.462 48 995 0 60 42 57 60 1007 225 22 8 104
2023089S14102 2023 13 SI WA HERMAN 2023-03-29 18:00:00 NR -14.5000 102.900 PROVISIONAL 882 859 O_____________ tcvitals SI172023 -14.5000 102.900 51 995 0 90 65 65 85 1007 200 25 10 99
2023089S14102 2023 13 SI WA HERMAN 2023-03-29 21:00:00 NR -14.5627 103.450 PROVISIONAL 866 851 P_____________ SI172023 -14.5627 103.450 52 994 0 82 72 62 80 1007 200 19 11 101
2023089S14102 2023 13 SI WA HERMAN 2023-03-30 00:00:00 NR -14.7000 104.000 PROVISIONAL 858 855 O_____________ tcvitals SI172023 -14.7000 104.000 54 993 0 75 80 60 75 1007 200 14 11 117
2023089S14102 2023 13 SI WA HERMAN 2023-03-30 03:00:00 NR -15.0424 104.437 PROVISIONAL 878 878 P_____________ SI172023 -15.0424 104.437 57 989 0 62 62 57 62 1006 200 14 10 132
2023089S14102 2023 13 SI WA HERMAN 2023-03-30 06:00:00 NR -15.4000 104.800 PROVISIONAL 912 910 O_____________ tcvitals SI172023 -15.4000 104.800 60 986 0 50 45 55 50 1006 200 14 8 128
2023089S14102 2023 13 SI WA HERMAN 2023-03-30 09:00:00 NR -15.5499 105.123 PROVISIONAL 918 918 P_____________ SI172023 -15.5499 105.123 74 981 1 50 45 55 50 1006 212 14 7 117
2023089S14102 2023 13 SI WA HERMAN 2023-03-30 12:00:00 NR -15.7000 105.400 PROVISIONAL 933 933 O_____________ tcvitals SI172023 -15.7000 105.400 89 976 2 50 45 55 50 1007 225 14 7 133
2023089S14102 2023 13 SI WA HERMAN 2023-03-30 15:00:00 NR -16.0350 105.672 PROVISIONAL 957 957 P_____________ SI172023 -16.0350 105.672 91 970 2 70 67 62 67 1007 225 9 9 145
2023089S14102 2023 13 SI WA HERMAN 2023-03-30 18:00:00 NR -16.4000 105.900 PROVISIONAL 995 995 O_____________ tcvitals SI172023 -16.4000 105.900 93 965 2 90 90 70 85 1007 225 5 7 149
2023089S14102 2023 13 SI WA HERMAN 2023-03-30 21:00:00 NR -16.6650 106.073 PROVISIONAL 1012 990 P_____________ SI172023 -16.6650 106.073 104 954 3 97 95 75 92 1005 172 5 6 150
2023089S14102 2023 13 SI WA HERMAN 2023-03-31 00:00:00 NR -16.9000 106.200 PROVISIONAL 990 969 O_____________ tcvitals SI172023 -16.9000 106.200 115 943 4 105 100 80 100 1004 120 5 5 156
2023089S14102 2023 13 SI WA HERMAN 2023-03-31 03:00:00 NR -17.1575 106.300 PROVISIONAL 962 941 P_____________ SI172023 -17.1575 106.300 119 941 4 82 85 75 80 1004 125 5 5 159
2023089S14102 2023 13 SI WA HERMAN 2023-03-31 06:00:00 NR -17.4000 106.400 PROVISIONAL 941 920 O_____________ tcvitals SI172023 -17.4000 106.400 124 939 4 60 70 70 60 1005 130 5 5 152
2023089S14102 2023 13 SI WA HERMAN 2023-03-31 09:00:00 NR -17.6000 106.550 PROVISIONAL 911 890 P_____________ SI172023 -17.6000 106.550 126 936 4 67 75 75 60 1005 117 5 5 145
2023089S14102 2023 13 SI WA HERMAN 2023-03-31 12:00:00 NR -17.8000 106.700 PROVISIONAL 890 869 O_____________ tcvitals SI172023 -17.8000 106.700 128 933 4 75 80 80 60 1006 105 5 5 152
2023089S14102 2023 13 SI WA HERMAN 2023-03-31 15:00:00 NR -18.0500 106.808 PROVISIONAL 869 843 P_____________ SI172023 -18.0500 106.808 128 932 4 75 80 77 70 1006 115 5 5 159
2023089S14102 2023 13 SI WA HERMAN 2023-03-31 18:00:00 NR -18.3000 106.900 PROVISIONAL 843 823 O_____________ tcvitals SI172023 -18.3000 106.900 128 932 4 75 80 75 80 1007 126 5 5 156
2023089S14102 2023 13 SI WA HERMAN 2023-03-31 21:00:00 NR -18.5075 107.022 PROVISIONAL 823 803 P_____________ SI172023 -18.5075 107.022 121 939 4 77 82 77 77 1007 126 5 4 155
2023089S14102 2023 13 SI WA HERMAN 2023-04-01 00:00:00 NR -18.7000 107.100 PROVISIONAL 803 792 O_____________ tcvitals SI172023 -18.7000 107.100 115 946 4 80 85 80 75 1007 126 5 4 173
2023089S14102 2023 13 SI WA HERMAN 2023-04-01 03:00:00 NR -18.8925 107.065 PROVISIONAL 792 789 P_____________ SI172023 -18.8925 107.065 110 948 3 55 62 65 62 1006 126 5 4 193
2023089S14102 2023 13 SI WA HERMAN 2023-04-01 06:00:00 NR -19.1000 107.000 PROVISIONAL 789 772 O_____________ tcvitals SI172023 -19.1000 107.000 105 951 3 30 40 50 50 1006 126 5 5 187
2023089S14102 2023 13 SI WA HERMAN 2023-04-01 09:00:00 NR -19.3650 107.007 PROVISIONAL 772 762 P_____________ SI172023 -19.3650 107.007 94 964 2 30 40 50 50 1006 118 7 5 178
2023089S14102 2023 13 SI WA HERMAN 2023-04-01 12:00:00 NR -19.6000 107.000 PROVISIONAL 762 757 O_____________ tcvitals SI172023 -19.6000 107.000 84 977 2 30 40 50 50 1007 110 10 4 195
2023089S14102 2023 13 SI WA HERMAN 2023-04-01 15:00:00 NR -19.7375 106.908 PROVISIONAL 766 761 P_____________ SI172023 -19.7375 106.908 77 979 1 30 40 50 50 1007 105 12 3 224
2023089S14102 2023 13 SI WA HERMAN 2023-04-01 18:00:00 NR -19.8000 106.800 PROVISIONAL 771 771 O_____________ tcvitals SI172023 -19.8000 106.800 70 982 1 30 40 50 50 1007 100 14 1 229
2023089S14102 2023 13 SI WA HERMAN 2023-04-01 21:00:00 NR -19.8147 106.817 PROVISIONAL 771 771 P_____________ SI172023 -19.8147 106.817 67 983 1 30 40 50 50 1007 100 14 1 270
2023089S14102 2023 13 SI WA HERMAN 2023-04-02 00:00:00 NR -19.8000 106.700 PROVISIONAL 780 780 O_____________ tcvitals SI172023 -19.8000 106.700 64 985 1 30 40 50 50 1007 100 14 6 271
2023089S14102 2023 13 SI WA HERMAN 2023-04-02 03:00:00 NR -19.8007 106.165 PROVISIONAL 828 828 P_____________ SI172023 -19.8007 106.165 49 989 0 40 37 1006 95 17 10 270
2023089S14102 2023 13 SI WA HERMAN 2023-04-02 06:00:00 NR -19.8000 105.600 PROVISIONAL 886 886 O_____________ tcvitals SI172023 -19.8000 105.600 35 994 0 30 25 1005 90 20 8 270
2023089S14102 2023 13 SI WA HERMAN 2023-04-02 09:00:00 NR -19.7995 105.345 PROVISIONAL 915 915 P_____________ SI172023 -19.7995 105.345 32 996 -1 1006 95 20 3 270
2023089S14102 2023 13 SI WA HERMAN 2023-04-02 12:00:00 NR -19.8000 105.300 PROVISIONAL 915 O_____________ tcvitals SI172023 -19.8000 105.300 29 998 -1 1007 100 20 1 269

IBTrACS Databaseについて

本データベースは、米国NOAAが公開する1842年以降の世界の熱帯低気圧のベストトラックデータアーカイブInternational Best Track Archive for Climate Stewardship (IBTrACS)を、ウェブで閲覧しやすい形式に変換したものです。

Data provided by NOAA IBTrACS (International Best Track Archive for Climate Stewardship), accessed on 2023-06-05